createdAt,value
2023-01-25T00:02:21.089Z,26.00
2023-01-25T00:04:47.955Z,27.37
2023-01-25T00:07:14.787Z,25.87
2023-01-25T00:09:41.604Z,26.33
2023-01-25T00:12:08.419Z,27.40
2023-01-25T00:14:35.303Z,26.23
2023-01-25T00:17:02.104Z,28.00
2023-01-25T00:19:28.931Z,27.67
2023-01-25T00:21:55.794Z,28.63
2023-01-25T00:24:23.327Z,29.67
2023-01-25T00:26:50.365Z,27.40
2023-01-25T00:29:17.260Z,28.73
2023-01-25T00:31:58.824Z,26.50
2023-01-25T00:34:25.717Z,26.10
2023-01-25T00:37:02.691Z,26.90
2023-01-25T00:39:29.976Z,27.73
2023-01-25T00:41:56.794Z,30.03
2023-01-25T00:44:23.757Z,30.43
2023-01-25T00:46:50.545Z,29.83
2023-01-25T00:49:28.324Z,27.63
2023-01-25T00:51:58.398Z,27.67
2023-01-25T00:54:25.651Z,29.07
2023-01-25T00:56:53.939Z,29.50
2023-01-25T00:59:20.851Z,29.03
2023-01-25T01:01:47.674Z,27.17
2023-01-25T01:04:14.614Z,24.67
2023-01-25T01:06:43.043Z,25.30
2023-01-25T01:09:17.085Z,24.83
2023-01-25T01:11:44.271Z,26.37
2023-01-25T01:14:11.703Z,29.77
2023-01-25T01:16:38.560Z,28.83
2023-01-25T01:19:05.964Z,28.27
2023-01-25T01:21:33.176Z,27.03
2023-01-25T01:24:00.338Z,25.40
2023-01-25T01:26:27.200Z,25.63
2023-01-25T01:28:54.024Z,24.50
2023-01-25T01:31:23.494Z,23.60
2023-01-25T01:33:55.487Z,22.77
2023-01-25T01:36:24.207Z,20.00
2023-01-25T01:38:51.376Z,16.80
2023-01-25T01:41:18.862Z,24.50
2023-01-25T01:43:45.812Z,24.70
2023-01-25T01:46:24.340Z,24.07
2023-01-25T01:49:00.282Z,20.60
2023-01-25T01:51:39.892Z,19.37
2023-01-25T01:54:16.342Z,17.60
2023-01-25T01:56:46.979Z,18.97
2023-01-25T01:59:14.385Z,18.60
2023-01-25T02:01:42.136Z,23.90
2023-01-25T02:04:09.737Z,22.97
2023-01-25T02:06:51.505Z,25.03
2023-01-25T02:09:21.549Z,16.83
2023-01-25T02:11:50.462Z,17.67
2023-01-25T02:14:18.871Z,22.93
2023-01-25T02:16:46.231Z,15.47
2023-01-25T02:19:41.842Z,13.93
2023-01-25T02:22:13.498Z,14.73
2023-01-25T02:24:42.996Z,16.80
2023-01-25T02:27:09.834Z,16.80
2023-01-25T02:29:37.368Z,16.03
2023-01-25T02:32:05.862Z,15.90
2023-01-25T02:34:32.777Z,16.57
2023-01-25T02:37:00.270Z,16.67
2023-01-25T02:39:28.127Z,17.70
2023-01-25T02:41:55.126Z,18.43
2023-01-25T02:44:26.035Z,15.77
2023-01-25T02:46:52.918Z,14.40
2023-01-25T02:49:19.873Z,16.13
2023-01-25T02:51:50.107Z,18.27
2023-01-25T02:54:20.255Z,16.27
2023-01-25T02:56:47.189Z,17.73
2023-01-25T02:59:14.529Z,17.47
2023-01-25T03:01:43.685Z,16.73
2023-01-25T03:04:11.238Z,17.13
2023-01-25T03:06:39.195Z,16.93
2023-01-25T03:09:09.738Z,16.77
2023-01-25T03:11:36.608Z,18.90
2023-01-25T03:14:03.556Z,20.97
2023-01-25T03:16:31.720Z,20.27
2023-01-25T03:18:58.605Z,20.87
2023-01-25T03:21:26.779Z,19.50
2023-01-25T03:23:59.185Z,17.60
2023-01-25T03:26:26.664Z,19.97
2023-01-25T03:28:53.515Z,18.93
2023-01-25T03:31:20.563Z,18.70
2023-01-25T03:33:47.705Z,18.97
2023-01-25T03:36:14.500Z,21.10
2023-01-25T03:38:41.408Z,16.33
2023-01-25T03:41:09.262Z,17.40
2023-01-25T03:43:36.111Z,17.20
2023-01-25T03:46:03.066Z,24.13
2023-01-25T03:48:30.316Z,20.17
2023-01-25T03:50:58.907Z,19.57
2023-01-25T03:53:30.933Z,19.00
2023-01-25T03:56:03.218Z,16.73
2023-01-25T03:58:30.795Z,18.23
2023-01-25T04:00:59.762Z,18.90
2023-01-25T04:03:30.168Z,19.13
2023-01-25T04:05:58.238Z,19.00
2023-01-25T04:08:25.222Z,20.93
2023-01-25T04:10:56.466Z,21.03
2023-01-25T04:13:25.099Z,22.30
2023-01-25T04:15:52.506Z,22.00
2023-01-25T04:18:19.500Z,21.57
2023-01-25T04:20:47.037Z,21.53
2023-01-25T04:23:13.835Z,19.67
2023-01-25T04:25:40.824Z,19.97
2023-01-25T04:28:07.653Z,19.97
2023-01-25T04:30:34.508Z,22.17
2023-01-25T04:33:05.630Z,21.67
2023-01-25T04:35:32.620Z,22.90
2023-01-25T04:38:00.462Z,22.53
2023-01-25T04:40:27.530Z,24.23
2023-01-25T04:42:54.419Z,23.60
2023-01-25T04:45:21.574Z,22.60
2023-01-25T04:47:48.901Z,24.00
2023-01-25T04:50:16.281Z,26.53
2023-01-25T04:52:43.099Z,34.00
2023-01-25T04:55:10.311Z,40.27
2023-01-25T04:57:37.332Z,40.73
2023-01-25T05:00:05.129Z,41.53
2023-01-25T05:02:32.067Z,37.33
2023-01-25T05:04:58.964Z,32.00
2023-01-25T05:07:25.882Z,28.40
2023-01-25T05:09:52.781Z,27.10
2023-01-25T05:12:19.700Z,25.43
2023-01-25T05:14:46.606Z,27.00
2023-01-25T05:17:13.630Z,28.57
2023-01-25T05:19:40.493Z,27.93
2023-01-25T05:22:07.820Z,24.13
2023-01-25T05:24:35.877Z,29.80
2023-01-25T05:27:06.163Z,22.40
2023-01-25T05:29:44.310Z,18.83
2023-01-25T05:32:15.372Z,30.77
2023-01-25T05:34:43.211Z,26.80
2023-01-25T05:37:12.340Z,28.23
2023-01-25T05:39:39.244Z,35.07
2023-01-25T05:42:14.112Z,49.20
2023-01-25T05:44:41.497Z,22.57
2023-01-25T05:47:13.608Z,21.67
2023-01-25T05:49:40.477Z,18.53
2023-01-25T05:52:07.348Z,18.40
2023-01-25T05:54:34.189Z,18.57
2023-01-25T05:57:01.107Z,20.10
2023-01-25T05:59:27.988Z,19.90
2023-01-25T06:01:54.874Z,24.43
2023-01-25T06:04:21.732Z,23.77
2023-01-25T06:06:48.563Z,21.93
2023-01-25T06:09:15.481Z,21.13
2023-01-25T06:11:45.722Z,27.13
2023-01-25T06:14:12.989Z,25.53
2023-01-25T06:16:39.951Z,21.07
2023-01-25T06:19:07.900Z,23.10
2023-01-25T06:21:38.229Z,29.00
2023-01-25T06:24:05.575Z,23.13
2023-01-25T06:26:32.523Z,52.73
2023-01-25T06:28:59.359Z,49.43
2023-01-25T06:31:26.363Z,94.20
2023-01-25T06:33:53.757Z,109.80
2023-01-25T06:36:21.698Z,41.80
2023-01-25T06:38:52.590Z,28.40
2023-01-25T06:41:20.487Z,32.13
2023-01-25T06:43:50.085Z,35.30
2023-01-25T06:46:17.693Z,32.80
2023-01-25T06:48:44.564Z,30.70
2023-01-25T06:51:13.710Z,30.50
2023-01-25T06:53:43.292Z,28.30
2023-01-25T06:56:15.062Z,27.97
2023-01-25T06:58:41.993Z,21.40
2023-01-25T07:01:16.590Z,22.60
2023-01-25T07:03:43.536Z,22.97
2023-01-25T07:06:11.753Z,21.43
2023-01-25T07:08:39.829Z,20.60
2023-01-25T07:11:12.240Z,21.07
2023-01-25T07:13:39.587Z,20.50
2023-01-25T07:16:09.158Z,19.27
2023-01-25T07:18:38.804Z,18.60
2023-01-25T07:21:08.155Z,20.63
2023-01-25T07:23:36.112Z,19.37
2023-01-25T07:26:04.039Z,19.17
2023-01-25T07:28:31.743Z,19.83
2023-01-25T07:31:06.544Z,21.20
2023-01-25T07:33:34.225Z,19.63
2023-01-25T07:36:05.610Z,20.20
2023-01-25T07:38:32.593Z,20.43
2023-01-25T07:40:59.478Z,20.20
2023-01-25T07:43:26.588Z,20.37
2023-01-25T07:45:53.663Z,21.47
2023-01-25T07:48:21.174Z,21.70
2023-01-25T07:50:49.730Z,21.13
2023-01-25T07:53:17.429Z,21.97
2023-01-25T07:55:44.351Z,21.27
2023-01-25T07:58:11.746Z,21.47
2023-01-25T08:00:40.449Z,21.00
2023-01-25T08:03:08.141Z,19.83
2023-01-25T08:05:34.987Z,20.93
2023-01-25T08:08:01.824Z,20.87
2023-01-25T08:10:28.870Z,20.00
2023-01-25T08:12:55.740Z,20.33
2023-01-25T08:15:22.820Z,19.67
2023-01-25T08:17:50.317Z,20.17
2023-01-25T08:20:17.472Z,19.53
2023-01-25T08:22:44.916Z,19.00
2023-01-25T08:25:11.817Z,19.70
2023-01-25T08:27:38.680Z,19.13
2023-01-25T08:30:05.980Z,19.53
2023-01-25T08:32:36.140Z,20.20
2023-01-25T08:35:04.182Z,19.97
2023-01-25T08:37:31.227Z,20.90
2023-01-25T08:39:59.940Z,21.10
2023-01-25T08:42:26.934Z,21.27
2023-01-25T08:44:53.844Z,20.17
2023-01-25T08:47:20.678Z,20.43
2023-01-25T08:49:47.912Z,21.90
2023-01-25T08:52:15.073Z,20.63
2023-01-25T08:54:44.397Z,20.00
2023-01-25T08:57:11.302Z,20.17
2023-01-25T08:59:38.156Z,18.93
2023-01-25T09:02:05.130Z,18.87
2023-01-25T09:04:32.205Z,18.23
2023-01-25T09:06:59.041Z,19.60
2023-01-25T09:09:26.039Z,20.43
2023-01-25T09:11:52.866Z,24.63
2023-01-25T09:14:19.719Z,22.23
2023-01-25T09:16:46.617Z,25.70
2023-01-25T09:19:13.785Z,28.17
2023-01-25T09:21:41.048Z,29.30
2023-01-25T09:24:09.124Z,30.43
2023-01-25T09:26:39.460Z,28.73
2023-01-25T09:29:08.203Z,27.23
2023-01-25T09:31:36.999Z,31.77
2023-01-25T09:34:03.987Z,22.40
2023-01-25T09:36:30.804Z,22.47
2023-01-25T09:38:57.729Z,21.27
2023-01-25T09:42:06.806Z,19.73
2023-01-25T09:45:08.430Z,19.97
2023-01-25T09:47:59.319Z,20.07
2023-01-25T09:50:55.666Z,19.97
2023-01-25T09:53:35.761Z,19.60
2023-01-25T09:56:23.928Z,20.40
2023-01-25T09:58:53.977Z,19.60
2023-01-25T10:01:38.278Z,19.23
2023-01-25T10:04:16.830Z,19.57
2023-01-25T10:06:55.206Z,19.93
2023-01-25T10:09:53.013Z,18.60
2023-01-25T10:12:22.456Z,33.77
2023-01-25T10:14:50.129Z,24.90
2023-01-25T10:17:35.274Z,21.83
2023-01-25T10:20:13.810Z,24.70
2023-01-25T10:22:51.558Z,23.87
2023-01-25T10:25:45.705Z,26.00
2023-01-25T10:28:15.569Z,24.30
2023-01-25T10:31:05.562Z,29.40
2023-01-25T10:33:37.507Z,30.07
2023-01-25T10:36:05.568Z,26.77
2023-01-25T10:38:38.844Z,22.13
2023-01-25T10:41:28.880Z,19.40
2023-01-25T10:44:18.484Z,20.33
2023-01-25T10:46:51.744Z,21.50
2023-01-25T10:49:33.571Z,19.97
2023-01-25T10:52:34.323Z,20.50
2023-01-25T10:55:17.601Z,19.47
2023-01-25T10:57:59.598Z,20.57
2023-01-25T11:00:41.381Z,17.83
2023-01-25T11:03:21.845Z,18.17
2023-01-25T11:05:56.777Z,17.97
2023-01-25T11:08:40.175Z,19.60
2023-01-25T11:11:15.769Z,17.30
2023-01-25T11:13:42.866Z,17.90
2023-01-25T11:16:33.459Z,17.20
2023-01-25T11:19:02.773Z,19.30
2023-01-25T11:21:34.912Z,18.37
2023-01-25T11:24:14.973Z,25.17
2023-01-25T11:26:42.582Z,20.17
2023-01-25T11:29:17.934Z,22.03
2023-01-25T11:31:52.238Z,19.10
2023-01-25T11:34:22.091Z,20.93
2023-01-25T11:37:03.412Z,16.07
2023-01-25T11:39:45.363Z,15.80
2023-01-25T11:42:24.018Z,19.07
2023-01-25T11:45:09.248Z,17.27
2023-01-25T11:48:01.697Z,16.03
2023-01-25T11:50:39.403Z,16.87
2023-01-25T11:53:24.334Z,17.40
2023-01-25T11:56:10.732Z,17.87
2023-01-25T11:59:14.286Z,15.60
2023-01-25T12:01:52.836Z,15.43
2023-01-25T12:04:38.533Z,15.70
2023-01-25T12:07:43.016Z,15.83
2023-01-25T12:10:28.491Z,18.03
2023-01-25T12:13:22.125Z,19.33
2023-01-25T12:15:51.731Z,21.97
2023-01-25T12:18:35.215Z,18.73
2023-01-25T12:21:17.480Z,18.27
2023-01-25T12:24:11.481Z,17.00
2023-01-25T12:26:56.158Z,19.30
2023-01-25T12:29:32.272Z,18.73
2023-01-25T12:32:14.131Z,16.07
2023-01-25T12:34:44.964Z,15.57
2023-01-25T12:37:19.050Z,16.83
2023-01-25T12:39:54.670Z,21.80
2023-01-25T12:42:51.021Z,18.60
2023-01-25T12:45:24.658Z,15.77
2023-01-25T12:48:03.295Z,15.50
2023-01-25T12:50:44.203Z,16.27
2023-01-25T12:53:17.160Z,15.20
2023-01-25T12:55:44.918Z,16.33
2023-01-25T12:58:37.904Z,15.03
2023-01-25T13:01:40.952Z,16.00
2023-01-25T13:04:17.780Z,17.23
2023-01-25T13:06:52.543Z,17.00
2023-01-25T13:09:35.591Z,18.67
2023-01-25T13:12:05.953Z,17.30
2023-01-25T13:14:37.765Z,16.57
2023-01-25T13:17:22.565Z,15.90
2023-01-25T13:19:51.522Z,14.63
2023-01-25T13:22:43.073Z,14.83
2023-01-25T13:25:23.614Z,17.63
2023-01-25T13:27:50.997Z,21.73
2023-01-25T13:30:31.842Z,25.40
2023-01-25T13:33:06.445Z,23.43
2023-01-25T13:35:35.256Z,24.13
2023-01-25T13:38:06.933Z,21.00
2023-01-25T13:40:38.233Z,21.30
2023-01-25T13:43:21.398Z,22.13
2023-01-25T13:45:51.069Z,19.97
2023-01-25T13:48:22.081Z,22.13
2023-01-25T13:51:03.651Z,37.93
2023-01-25T13:53:33.452Z,31.23
2023-01-25T13:56:00.730Z,23.93
2023-01-25T13:58:44.900Z,28.60
2023-01-25T14:01:18.942Z,25.20
2023-01-25T14:03:49.406Z,29.37
2023-01-25T14:06:40.912Z,105.50
2023-01-25T14:09:20.716Z,49.63
2023-01-25T14:11:57.580Z,30.70
2023-01-25T14:14:33.961Z,87.37
2023-01-25T14:17:25.194Z,57.77
2023-01-25T14:19:56.023Z,29.83
2023-01-25T14:22:30.772Z,29.83
2023-01-25T14:25:14.359Z,31.73
2023-01-25T14:27:46.048Z,24.27
2023-01-25T14:30:26.234Z,25.33
2023-01-25T14:32:59.393Z,21.73
2023-01-25T14:35:49.648Z,24.90
2023-01-25T14:38:28.700Z,21.07
2023-01-25T14:41:01.221Z,20.30
2023-01-25T14:43:28.855Z,19.43
2023-01-25T14:45:55.851Z,19.67
2023-01-25T14:48:41.520Z,23.83
2023-01-25T14:51:51.238Z,22.10
2023-01-25T14:54:25.378Z,26.17
2023-01-25T14:56:58.083Z,22.10
2023-01-25T14:59:38.744Z,21.53
2023-01-25T15:02:31.099Z,30.67
2023-01-25T15:05:11.061Z,23.30
2023-01-25T15:07:49.114Z,24.53
2023-01-25T15:10:27.053Z,20.27
2023-01-25T15:13:11.637Z,21.63
2023-01-25T15:15:58.902Z,18.67
2023-01-25T15:18:46.082Z,22.10
2023-01-25T15:21:19.723Z,21.17
2023-01-25T15:23:48.601Z,21.80
2023-01-25T15:26:25.614Z,22.37
2023-01-25T15:28:55.081Z,19.20
2023-01-25T15:31:32.062Z,19.53
2023-01-25T15:34:01.619Z,20.37
2023-01-25T15:36:30.180Z,21.47
2023-01-25T15:38:57.147Z,22.33
2023-01-25T15:41:24.255Z,28.13
2023-01-25T15:43:51.912Z,30.47
2023-01-25T15:46:28.384Z,26.67
2023-01-25T15:48:55.376Z,25.33
2023-01-25T15:51:23.398Z,27.83
2023-01-25T15:53:50.623Z,29.97
2023-01-25T15:56:24.437Z,29.83
2023-01-25T15:58:53.765Z,31.87
2023-01-25T16:01:23.613Z,34.20
2023-01-25T16:03:51.051Z,25.07
2023-01-25T16:06:47.196Z,28.10
2023-01-25T16:09:23.467Z,37.17
2023-01-25T16:11:55.354Z,41.73
2023-01-25T16:14:31.887Z,25.53
2023-01-25T16:17:03.105Z,22.80
2023-01-25T16:19:30.639Z,22.27
2023-01-25T16:21:58.472Z,25.07
2023-01-25T16:24:25.419Z,25.97
2023-01-25T16:26:59.214Z,29.97
2023-01-25T16:29:26.774Z,57.53
2023-01-25T16:31:54.562Z,32.33
2023-01-25T16:34:22.375Z,27.37
2023-01-25T16:36:53.331Z,25.07
2023-01-25T16:39:25.538Z,35.97
2023-01-25T16:41:52.588Z,24.97
2023-01-25T16:44:19.467Z,22.83
2023-01-25T16:46:49.127Z,24.63
2023-01-25T16:49:24.506Z,20.13
2023-01-25T16:51:51.830Z,25.37
2023-01-25T16:54:20.115Z,20.67
2023-01-25T16:56:48.408Z,21.70
2023-01-25T16:59:15.297Z,21.77
2023-01-25T17:01:42.598Z,32.90
2023-01-25T17:04:10.451Z,31.10
2023-01-25T17:06:40.469Z,25.03
2023-01-25T17:09:21.614Z,24.37
2023-01-25T17:11:49.725Z,23.03
2023-01-25T17:14:19.171Z,24.63
2023-01-25T17:16:48.488Z,26.63
2023-01-25T17:19:17.234Z,26.87
2023-01-25T17:21:44.982Z,35.20
2023-01-25T17:24:14.368Z,30.63
2023-01-25T17:26:41.558Z,26.07
2023-01-25T17:29:10.236Z,28.43
2023-01-25T17:31:39.851Z,30.47
2023-01-25T17:34:08.462Z,29.07
2023-01-25T17:36:35.378Z,31.80
2023-01-25T17:39:05.103Z,27.97
2023-01-25T17:41:32.359Z,28.30
2023-01-25T17:43:59.243Z,27.63
2023-01-25T17:46:33.280Z,29.40
2023-01-25T17:49:02.416Z,28.60
2023-01-25T17:51:31.176Z,27.47
2023-01-25T17:53:58.065Z,29.17
2023-01-25T17:56:25.549Z,27.87
2023-01-25T17:58:52.879Z,27.00
2023-01-25T18:01:25.385Z,26.70
2023-01-25T18:03:53.899Z,33.07
2023-01-25T18:06:25.059Z,47.30
2023-01-25T18:08:54.509Z,53.00
2023-01-25T18:11:26.072Z,45.63
2023-01-25T18:13:56.139Z,42.93
2023-01-25T18:16:25.393Z,35.50
2023-01-25T18:18:53.976Z,30.07
2023-01-25T18:21:25.971Z,31.87
2023-01-25T18:23:55.402Z,37.97
2023-01-25T18:26:28.008Z,33.10
2023-01-25T18:28:59.249Z,31.83
2023-01-25T18:31:26.680Z,28.57
2023-01-25T18:33:53.666Z,26.47
2023-01-25T18:36:20.652Z,29.10
2023-01-25T18:38:47.587Z,29.40
2023-01-25T18:41:14.452Z,32.40
2023-01-25T18:43:42.386Z,27.23
2023-01-25T18:46:09.690Z,27.90
2023-01-25T18:48:36.700Z,28.93
2023-01-25T18:51:09.358Z,31.40
2023-01-25T18:53:39.731Z,29.47
2023-01-25T18:56:18.766Z,30.20
2023-01-25T18:58:46.320Z,26.80
2023-01-25T19:01:15.189Z,29.13
2023-01-25T19:03:43.663Z,33.30
2023-01-25T19:06:10.840Z,30.97
2023-01-25T19:08:41.587Z,42.80
2023-01-25T19:11:11.025Z,46.83
2023-01-25T19:13:39.380Z,49.97
2023-01-25T19:16:09.319Z,50.47
2023-01-25T19:18:38.333Z,40.23
2023-01-25T19:21:09.555Z,35.57
2023-01-25T19:23:38.700Z,30.20
2023-01-25T19:26:07.208Z,26.20
2023-01-25T19:28:34.924Z,26.97
2023-01-25T19:31:07.933Z,26.40
2023-01-25T19:33:35.591Z,25.70
2023-01-25T19:36:06.694Z,33.87
2023-01-25T19:38:38.569Z,27.60
2023-01-25T19:41:07.405Z,26.40
2023-01-25T19:43:34.733Z,25.23
2023-01-25T19:46:14.738Z,25.40
2023-01-25T19:48:42.719Z,25.47
2023-01-25T19:51:21.049Z,24.90
2023-01-25T19:53:58.617Z,25.13
2023-01-25T19:56:26.352Z,26.40
2023-01-25T19:58:53.312Z,26.23
2023-01-25T20:01:23.275Z,24.20
2023-01-25T20:03:50.827Z,22.23
2023-01-25T20:06:19.860Z,21.90
2023-01-25T20:08:47.875Z,23.30
2023-01-25T20:11:17.652Z,22.27
2023-01-25T20:13:45.677Z,24.73
2023-01-25T20:16:13.546Z,23.23
2023-01-25T20:18:40.581Z,24.30
2023-01-25T20:21:11.393Z,24.30
2023-01-25T20:23:40.979Z,23.57
2023-01-25T20:26:13.462Z,24.90
2023-01-25T20:28:41.750Z,24.77
2023-01-25T20:31:41.180Z,26.20
2023-01-25T20:34:12.025Z,24.37
2023-01-25T20:36:39.113Z,26.37
2023-01-25T20:39:07.795Z,25.43
2023-01-25T20:41:35.090Z,26.50
2023-01-25T20:44:10.039Z,27.20
2023-01-25T20:46:38.888Z,27.20
2023-01-25T20:49:08.223Z,27.77
2023-01-25T20:51:35.815Z,29.47
2023-01-25T20:54:02.848Z,28.13
2023-01-25T20:56:29.807Z,26.27
2023-01-25T20:58:56.620Z,27.40
2023-01-25T21:01:29.763Z,28.93
2023-01-25T21:03:58.224Z,28.13
2023-01-25T21:06:28.624Z,30.10
2023-01-25T21:08:55.629Z,29.53
2023-01-25T21:11:26.232Z,29.73
2023-01-25T21:13:57.191Z,29.33
2023-01-25T21:16:24.240Z,27.67
2023-01-25T21:18:54.596Z,27.97
2023-01-25T21:21:28.341Z,29.67
2023-01-25T21:23:58.183Z,27.83
2023-01-25T21:26:27.269Z,28.20
2023-01-25T21:28:54.729Z,30.03
2023-01-25T21:31:23.735Z,29.47
2023-01-25T21:33:51.088Z,29.83
2023-01-25T21:36:18.685Z,32.10
2023-01-25T21:38:47.984Z,32.83
2023-01-25T21:41:17.468Z,36.00
2023-01-25T21:44:07.269Z,30.83
2023-01-25T21:46:34.534Z,30.17
2023-01-25T21:49:22.103Z,28.73
2023-01-25T21:51:50.978Z,28.63
2023-01-25T21:54:26.018Z,29.47
2023-01-25T21:56:54.989Z,34.83
2023-01-25T21:59:22.690Z,34.90
2023-01-25T22:01:50.822Z,35.03
2023-01-25T22:04:19.001Z,31.50
2023-01-25T22:06:46.290Z,30.50
2023-01-25T22:09:13.589Z,26.67
2023-01-25T22:14:23.367Z,29.17
2023-01-25T22:16:51.630Z,31.30
2023-01-25T22:19:18.975Z,35.77
2023-01-25T22:21:45.849Z,36.80
2023-01-25T22:24:13.200Z,36.43
2023-01-25T22:26:40.011Z,36.40
2023-01-25T22:29:06.912Z,42.10
2023-01-25T22:31:33.910Z,41.63
2023-01-25T22:34:00.971Z,41.60
2023-01-25T22:36:29.568Z,43.07
2023-01-25T22:38:57.220Z,43.07
2023-01-25T22:41:29.786Z,40.67
2023-01-25T22:43:57.005Z,38.20
2023-01-25T22:46:26.250Z,39.27
2023-01-25T22:48:53.415Z,50.23
2023-01-25T22:51:25.799Z,52.83
2023-01-25T22:53:53.645Z,62.93
2023-01-25T22:56:23.243Z,65.47
2023-01-25T22:58:50.867Z,59.90
2023-01-25T23:01:20.435Z,57.50
2023-01-25T23:03:48.726Z,50.03
2023-01-25T23:06:17.776Z,49.40
2023-01-25T23:08:45.027Z,47.40
2023-01-25T23:11:20.302Z,49.50
2023-01-25T23:14:06.654Z,54.63
2023-01-25T23:16:36.412Z,68.33
2023-01-25T23:19:04.805Z,53.47
2023-01-25T23:21:32.032Z,48.10
2023-01-25T23:24:03.411Z,37.53
2023-01-25T23:26:37.902Z,27.50
2023-01-25T23:29:10.880Z,29.00
2023-01-25T23:31:37.988Z,32.13
2023-01-25T23:34:06.196Z,33.10
2023-01-25T23:36:42.377Z,35.00
2023-01-25T23:39:12.659Z,40.80
2023-01-25T23:41:39.758Z,35.23
2023-01-25T23:44:07.154Z,31.80
2023-01-25T23:46:35.185Z,33.57
2023-01-25T23:49:02.038Z,34.67
2023-01-25T23:51:28.818Z,33.50
2023-01-25T23:53:57.719Z,35.30
2023-01-25T23:56:24.738Z,35.90
2023-01-25T23:58:51.592Z,33.83
